Time;durP1;ratioP1;P1;durP2;ratioP2;P2;SDS_P1;SDS_P2;PMS_P1;PMS_P2;Temp;Humidity;BMP_temperature;BMP_pressure;BME280_temperature;BME280_humidity;BME280_pressure;Samples;Min_cycle;Max_cycle;Signal;HPM_P1;HPM_P2
2021/08/15 00:02:21;;;;;;;12.60;11.30;;;20.60;99.90;;;;;;4964890;28;20222;-79
2021/08/15 00:04:48;;;;;;;13.53;12.17;;;20.60;99.90;;;;;;4963090;28;20196;-80
2021/08/15 00:07:18;;;;;;;14.87;13.57;;;20.60;99.90;;;;;;4962624;28;20709;-79
2021/08/15 00:09:44;;;;;;;15.60;14.10;;;20.50;99.90;;;;;;4967549;28;20210;-80
2021/08/15 00:12:12;;;;;;;14.33;13.03;;;20.50;99.90;;;;;;4953936;28;20226;-79
2021/08/15 00:14:39;;;;;;;14.83;13.43;;;20.50;99.90;;;;;;4966817;28;20200;-79
2021/08/15 00:17:06;;;;;;;15.70;14.30;;;20.50;99.90;;;;;;4967008;28;20200;-79
2021/08/15 00:19:32;;;;;;;15.37;13.97;;;20.50;99.90;;;;;;4969510;28;20677;-80
2021/08/15 00:21:59;;;;;;;16.90;15.30;;;20.50;99.90;;;;;;4961882;28;20219;-80
2021/08/15 00:24:27;;;;;;;16.50;15.00;;;20.50;99.90;;;;;;4964391;28;20208;-80
2021/08/15 00:26:54;;;;;;;16.40;14.57;;;20.50;99.90;;;;;;4958131;28;20222;-80
2021/08/15 00:29:22;;;;;;;15.73;14.13;;;20.50;99.90;;;;;;4963534;28;20689;-79
2021/08/15 00:31:49;;;;;;;18.80;15.47;;;20.50;99.90;;;;;;4969284;28;20673;-80
2021/08/15 00:34:15;;;;;;;17.07;15.47;;;20.50;99.90;;;;;;4964761;28;20611;-79
2021/08/15 00:36:42;;;;;;;15.43;13.83;;;20.50;99.90;;;;;;4963496;28;20213;-81
2021/08/15 00:39:09;;;;;;;16.30;14.60;;;20.40;99.90;;;;;;4964489;28;20253;-79
2021/08/15 00:41:37;;;;;;;15.37;13.87;;;20.40;99.90;;;;;;4964417;28;20677;-80
2021/08/15 00:44:06;;;;;;;14.43;13.13;;;20.40;99.90;;;;;;4963983;28;20261;-80
2021/08/15 00:46:33;;;;;;;14.60;13.20;;;20.30;99.90;;;;;;4954757;28;20629;-80
2021/08/15 00:48:59;;;;;;;14.17;12.87;;;20.30;99.90;;;;;;4970878;28;20226;-80
2021/08/15 00:51:26;;;;;;;13.73;12.37;;;20.30;99.90;;;;;;4955720;28;20207;-79
2021/08/15 00:53:53;;;;;;;13.73;12.43;;;20.30;99.90;;;;;;4962982;28;20219;-80
2021/08/15 00:56:20;;;;;;;14.37;13.07;;;20.30;99.90;;;;;;4964291;28;20206;-82
2021/08/15 00:58:50;;;;;;;14.23;13.03;;;20.30;99.90;;;;;;4964387;28;20194;-80
2021/08/15 01:01:18;;;;;;;14.83;13.37;;;20.30;99.90;;;;;;4953976;28;20205;-80
2021/08/15 01:03:46;;;;;;;15.37;13.87;;;20.30;99.90;;;;;;4965895;28;20222;-79
2021/08/15 01:06:13;;;;;;;15.23;13.83;;;20.20;99.90;;;;;;4958816;28;20265;-80
2021/08/15 01:08:40;;;;;;;14.83;13.40;;;20.20;99.90;;;;;;4961824;28;20253;-80
2021/08/15 01:11:09;;;;;;;14.33;12.93;;;20.20;99.90;;;;;;4972012;28;20207;-79
2021/08/15 01:13:37;;;;;;;14.37;12.97;;;20.20;99.90;;;;;;4963543;28;20275;-79
2021/08/15 01:16:06;;;;;;;13.00;11.80;;;20.20;99.90;;;;;;4971524;28;20234;-80
2021/08/15 01:18:35;;;;;;;14.33;12.93;;;20.10;99.90;;;;;;4980019;28;20261;-80
2021/08/15 01:21:05;;;;;;;14.77;13.20;;;20.10;99.90;;;;;;4968939;28;20263;-80
2021/08/15 01:23:32;;;;;;;15.13;13.63;;;20.00;99.90;;;;;;4968084;28;20354;-80
2021/08/15 01:26:00;;;;;;;15.23;13.80;;;20.00;99.90;;;;;;4958374;28;20199;-79
2021/08/15 01:28:30;;;;;;;16.27;14.63;;;20.00;99.90;;;;;;4964049;28;20226;-80
2021/08/15 01:30:57;;;;;;;17.07;15.37;;;19.90;99.90;;;;;;4965678;28;20220;-80
2021/08/15 01:33:26;;;;;;;16.40;14.80;;;19.90;99.90;;;;;;4960014;28;20673;-79
2021/08/15 01:35:54;;;;;;;17.27;15.63;;;19.80;99.90;;;;;;4972916;28;20194;-79
2021/08/15 01:38:22;;;;;;;16.67;15.17;;;19.80;99.90;;;;;;4970134;28;20649;-79
2021/08/15 01:40:49;;;;;;;17.13;15.60;;;19.80;99.90;;;;;;4960602;28;20265;-79
2021/08/15 01:43:16;;;;;;;15.97;14.47;;;19.80;99.90;;;;;;4967990;28;20226;-79
2021/08/15 01:45:45;;;;;;;16.00;14.60;;;19.80;99.90;;;;;;4974202;28;20218;-79
2021/08/15 01:48:12;;;;;;;15.10;13.73;;;19.70;99.90;;;;;;4968045;28;20330;-80
2021/08/15 01:50:39;;;;;;;15.20;13.80;;;19.80;99.90;;;;;;4968281;28;20194;-80
2021/08/15 01:53:10;;;;;;;15.63;14.30;;;19.70;99.90;;;;;;4975812;28;20218;-80
2021/08/15 01:55:39;;;;;;;14.83;13.43;;;19.70;99.90;;;;;;4984850;28;20216;-80
2021/08/15 01:58:06;;;;;;;15.77;14.27;;;19.70;99.90;;;;;;4961383;28;20210;-79
2021/08/15 02:00:33;;;;;;;15.47;14.07;;;19.70;99.90;;;;;;4971487;28;20241;-80
2021/08/15 02:03:01;;;;;;;15.50;14.10;;;19.60;99.90;;;;;;4966702;28;20284;-79
2021/08/15 02:05:28;;;;;;;15.27;13.87;;;19.60;99.90;;;;;;4968435;28;20195;-79
2021/08/15 02:07:55;;;;;;;15.97;14.47;;;19.60;99.90;;;;;;4970893;28;20220;-79
2021/08/15 02:10:24;;;;;;;16.00;14.60;;;19.50;99.90;;;;;;4966528;28;20281;-79
2021/08/15 02:12:51;;;;;;;15.50;14.00;;;19.50;99.90;;;;;;4963852;28;20312;-79
2021/08/15 02:15:18;;;;;;;14.97;13.67;;;19.40;99.90;;;;;;4966178;28;20206;-79
2021/08/15 02:17:45;;;;;;;15.73;14.33;;;19.40;99.90;;;;;;4969624;28;20202;-80
2021/08/15 02:20:15;;;;;;;15.53;14.10;;;19.40;99.90;;;;;;4967466;28;20425;-79
2021/08/15 02:22:42;;;;;;;15.23;13.87;;;19.40;99.90;;;;;;4975186;28;20226;-79
2021/08/15 02:25:10;;;;;;;16.37;14.97;;;19.30;99.90;;;;;;4971693;28;20670;-80
2021/08/15 02:27:38;;;;;;;15.20;13.80;;;19.30;99.90;;;;;;4967537;28;20214;-80
2021/08/15 02:30:07;;;;;;;15.13;13.90;;;19.30;99.90;;;;;;4962490;28;20258;-80
2021/08/15 02:32:37;;;;;;;15.30;13.90;;;19.20;99.90;;;;;;4966069;28;20215;-79
2021/08/15 02:35:06;;;;;;;17.00;15.60;;;19.20;99.90;;;;;;4965908;28;20264;-79
2021/08/15 02:37:34;;;;;;;15.87;14.47;;;19.20;99.90;;;;;;4959416;28;20254;-79
2021/08/15 02:40:02;;;;;;;16.17;14.63;;;19.20;99.90;;;;;;4967565;28;20254;-79
2021/08/15 02:42:29;;;;;;;16.33;14.93;;;19.30;99.90;;;;;;4965599;28;20221;-79
2021/08/15 02:44:56;;;;;;;17.00;15.40;;;19.30;99.90;;;;;;4965454;28;20264;-79
2021/08/15 02:47:23;;;;;;;15.90;14.50;;;19.30;99.90;;;;;;4965316;28;20280;-80
2021/08/15 02:49:50;;;;;;;17.00;15.50;;;19.30;99.90;;;;;;4965755;28;20208;-80
2021/08/15 02:52:17;;;;;;;17.70;16.07;;;19.30;99.90;;;;;;4960339;28;20221;-79
2021/08/15 02:54:45;;;;;;;17.73;16.23;;;19.20;99.90;;;;;;4964688;28;20207;-79
2021/08/15 02:57:44;;;;;;;17.77;16.00;;;19.20;99.90;;;;;;4967603;28;20308;-79
2021/08/15 03:00:17;;;;;;;17.63;16.13;;;19.20;99.90;;;;;;4965098;28;20197;-79
2021/08/15 03:02:46;;;;;;;18.00;16.37;;;19.10;99.90;;;;;;4965331;28;20218;-80
2021/08/15 03:05:16;;;;;;;16.10;14.70;;;19.10;99.90;;;;;;4969955;28;20198;-79
2021/08/15 03:07:46;;;;;;;17.10;15.60;;;19.10;99.90;;;;;;4960674;28;21897;-79
2021/08/15 03:10:21;;;;;;;17.03;15.53;;;19.00;99.90;;;;;;4969496;28;20252;-79
2021/08/15 03:12:51;;;;;;;17.20;15.63;;;19.00;99.90;;;;;;4967790;28;20217;-80
2021/08/15 03:15:22;;;;;;;18.53;16.63;;;19.00;99.90;;;;;;4961166;28;20237;-79
2021/08/15 03:18:17;;;;;;;17.37;15.87;;;18.90;99.90;;;;;;4962347;28;20213;-79
2021/08/15 03:21:02;;;;;;;17.07;15.53;;;18.90;99.90;;;;;;4968678;28;20298;-79
2021/08/15 03:23:37;;;;;;;18.17;16.47;;;18.90;99.90;;;;;;4969423;28;20217;-79
2021/08/15 03:26:36;;;;;;;18.63;16.97;;;18.90;99.90;;;;;;4960757;28;20570;-80
2021/08/15 03:29:29;;;;;;;18.67;16.80;;;18.90;99.90;;;;;;4963765;28;20280;-80
2021/08/15 03:32:11;;;;;;;18.93;17.23;;;18.90;99.90;;;;;;4953225;28;20291;-80
2021/08/15 03:35:35;;;;;;;18.53;16.93;;;18.90;99.90;;;;;;4966308;28;20201;-79
2021/08/15 03:38:05;;;;;;;19.60;17.73;;;18.90;99.90;;;;;;4947778;28;20218;-77
2021/08/15 03:40:52;;;;;;;18.87;17.10;;;18.90;99.90;;;;;;4965037;28;20209;-77
2021/08/15 03:50:44;;;;;;;18.00;16.40;;;18.80;99.90;;;;;;4964736;28;20211;-79
2021/08/15 03:57:01;;;;;;;17.37;15.77;;;18.80;99.90;;;;;;4892126;29;20212;-80
2021/08/15 03:59:29;;;;;;;16.80;15.30;;;18.70;99.90;;;;;;4896673;29;20735;-79
2021/08/15 04:02:01;;;;;;;17.57;16.07;;;18.70;99.90;;;;;;4949417;28;20765;-79
2021/08/15 04:04:33;;;;;;;17.77;16.27;;;18.60;99.90;;;;;;4969238;28;20229;-79
2021/08/15 04:07:12;;;;;;;18.27;16.47;;;18.70;99.90;;;;;;4968666;28;20570;-79
2021/08/15 04:29:39;;;;;;;;;;;;;;;;;;;;;
2021/08/15 04:32:46;;;;;;;16.00;14.60;;;18.40;99.90;;;;;;4859035;29;20232;-78
2021/08/15 04:35:15;;;;;;;16.40;14.90;;;18.40;99.90;;;;;;4912636;29;20267;-78
2021/08/15 04:37:48;;;;;;;15.97;14.57;;;18.50;99.90;;;;;;4911230;28;20717;-78
2021/08/15 04:40:41;;;;;;;16.60;15.07;;;18.40;99.90;;;;;;4968708;28;20203;-79
2021/08/15 04:43:11;;;;;;;16.87;15.37;;;18.50;99.90;;;;;;4969312;28;20227;-78
2021/08/15 04:45:42;;;;;;;16.33;14.90;;;18.50;99.90;;;;;;4966924;28;20205;-78
2021/08/15 04:48:23;;;;;;;17.57;16.00;;;18.50;99.90;;;;;;4969095;28;20284;-78
2021/08/15 04:50:50;;;;;;;16.10;14.80;;;18.60;99.90;;;;;;4967532;28;20233;-79
2021/08/15 05:13:02;;;;;;;;;;;;;;;;;;;;;
2021/08/15 05:54:19;;;;;;;16.23;14.83;;;21.40;99.90;;;;;;4813107;29;20725;-80
2021/08/15 06:13:43;;;;;;;14.97;13.67;;;21.60;99.90;;;;;;4873483;29;20223;-78
2021/08/15 06:17:00;;;;;;;16.67;15.27;;;21.70;99.90;;;;;;4931361;29;20218;-78
2021/08/15 06:27:24;;;;;;;16.37;15.03;;;22.00;99.90;;;;;;4763933;30;20196;-77
2021/08/15 06:29:57;;;;;;;13.23;12.03;;;22.20;99.90;;;;;;4805451;29;20211;-77
2021/08/15 06:32:43;;;;;;;12.80;11.70;;;22.40;99.90;;;;;;4918141;29;20234;-78
2021/08/15 06:35:12;;;;;;;13.77;12.33;;;22.60;99.90;;;;;;4930548;29;20686;-77
2021/08/15 06:37:39;;;;;;;13.60;12.40;;;22.70;99.90;;;;;;4969128;28;20218;-76
2021/08/15 06:40:07;;;;;;;13.50;12.40;;;22.90;99.90;;;;;;4963527;28;20293;-76
2021/08/15 06:42:34;;;;;;;11.37;10.17;;;23.10;99.90;;;;;;4960226;28;20309;-77
2021/08/15 06:45:01;;;;;;;12.67;11.60;;;23.10;99.90;;;;;;4970467;28;20281;-77
2021/08/15 06:47:29;;;;;;;12.10;11.00;;;23.20;99.90;;;;;;4959071;28;20205;-77
2021/08/15 06:49:55;;;;;;;12.90;11.90;;;23.40;99.90;;;;;;4963155;28;20241;-77
2021/08/15 06:52:25;;;;;;;14.00;12.90;;;23.50;99.90;;;;;;4966817;28;20264;-76
2021/08/15 06:54:52;;;;;;;13.40;12.20;;;23.60;99.90;;;;;;4961874;28;20206;-77
2021/08/15 06:57:19;;;;;;;14.40;12.87;;;23.80;99.90;;;;;;4964009;28;20204;-76
2021/08/15 06:59:46;;;;;;;14.03;12.93;;;24.00;99.90;;;;;;4962815;28;20190;-77
2021/08/15 07:02:13;;;;;;;13.57;12.27;;;24.10;99.90;;;;;;4970084;28;20209;-77
2021/08/15 07:04:41;;;;;;;10.43;8.73;;;24.30;99.90;;;;;;4971795;28;20193;-77
2021/08/15 07:07:08;;;;;;;10.77;9.50;;;24.30;99.90;;;;;;4972836;28;20705;-77
2021/08/15 07:09:36;;;;;;;13.33;11.93;;;24.30;99.90;;;;;;4968592;28;20226;-77
2021/08/15 07:12:04;;;;;;;11.43;10.27;;;24.40;99.90;;;;;;4957247;28;20229;-78
2021/08/15 07:14:31;;;;;;;14.37;13.17;;;24.40;99.90;;;;;;4969230;28;20745;-77
2021/08/15 07:16:58;;;;;;;15.60;14.30;;;24.50;99.90;;;;;;4983425;28;20197;-77
2021/08/15 07:19:26;;;;;;;16.23;14.77;;;24.60;99.90;;;;;;4961164;28;20694;-78
2021/08/15 07:21:53;;;;;;;15.17;13.83;;;24.60;99.90;;;;;;4970281;28;20736;-77
2021/08/15 07:24:25;;;;;;;14.80;13.60;;;24.80;99.90;;;;;;4960092;28;20214;-76
2021/08/15 07:30:25;;;;;;;16.57;14.83;;;25.20;99.90;;;;;;4969236;28;20202;-79
2021/08/15 07:33:17;;;;;;;15.40;14.10;;;25.50;99.90;;;;;;4965728;28;20218;-79
2021/08/15 07:44:14;;;;;;;15.17;13.83;;;27.00;99.90;;;;;;4891690;29;20742;-82
2021/08/15 07:46:56;;;;;;;14.17;12.97;;;27.50;99.90;;;;;;4894914;29;20200;-82
2021/08/15 07:49:23;;;;;;;15.57;14.10;;;27.80;99.90;;;;;;4891562;29;20224;-80
2021/08/15 07:51:58;;;;;;;15.27;13.87;;;28.00;99.90;;;;;;4928438;28;20218;-80
2021/08/15 07:54:29;;;;;;;13.67;12.27;;;28.20;99.90;;;;;;4960576;28;20202;-81
2021/08/15 07:56:59;;;;;;;14.03;12.63;;;28.40;99.90;;;;;;4957768;28;20202;-80
2021/08/15 07:59:45;;;;;;;12.90;11.80;;;28.50;99.90;;;;;;4966871;28;20206;-80
2021/08/15 08:02:14;;;;;;;12.97;11.77;;;28.50;99.90;;;;;;4965960;28;20228;-80
2021/08/15 08:04:48;;;;;;;13.80;12.60;;;28.60;99.90;;;;;;4967675;28;20206;-80
2021/08/15 08:07:18;;;;;;;12.50;11.40;;;28.70;99.90;;;;;;4969645;28;20206;-80
2021/08/15 08:09:46;;;;;;;15.33;14.03;;;29.00;99.90;;;;;;4967802;28;20221;-80
2021/08/15 08:12:14;;;;;;;14.77;13.57;;;28.80;99.90;;;;;;4971752;28;20237;-79
2021/08/15 08:14:47;;;;;;;14.80;13.40;;;28.50;99.90;;;;;;4970323;28;20314;-80
2021/08/15 08:17:15;;;;;;;13.67;12.53;;;28.50;99.90;;;;;;4966720;28;20199;-79
2021/08/15 08:19:44;;;;;;;15.93;14.53;;;28.90;99.90;;;;;;4962680;28;20190;-79
2021/08/15 08:22:11;;;;;;;15.07;13.70;;;29.20;99.90;;;;;;4968862;28;20216;-79
2021/08/15 08:24:38;;;;;;;13.77;12.67;;;29.30;99.90;;;;;;4960119;28;20256;-79
2021/08/15 08:27:05;;;;;;;14.40;13.07;;;29.40;99.90;;;;;;4962753;28;20209;-79
2021/08/15 08:29:33;;;;;;;14.87;13.67;;;29.60;99.90;;;;;;4972638;28;20222;-79
2021/08/15 08:32:00;;;;;;;14.63;13.30;;;29.80;99.90;;;;;;4970061;28;20269;-79
2021/08/15 08:34:28;;;;;;;14.20;12.83;;;30.40;99.90;;;;;;4961007;28;20695;-79
2021/08/15 08:36:55;;;;;;;13.17;11.97;;;30.40;99.90;;;;;;4964958;28;20210;-79
2021/08/15 08:39:22;;;;;;;13.70;12.23;;;30.70;99.90;;;;;;4969831;28;20293;-79
2021/08/15 08:41:50;;;;;;;13.83;12.33;;;30.40;99.90;;;;;;4970287;28;20708;-79
2021/08/15 08:44:19;;;;;;;14.40;13.17;;;29.80;99.90;;;;;;4966384;28;20190;-78
2021/08/15 08:46:48;;;;;;;16.53;14.17;;;29.50;99.90;;;;;;4967834;28;20197;-79
2021/08/15 08:49:16;;;;;;;15.83;14.53;;;29.90;99.90;;;;;;4971515;28;20229;-79
2021/08/15 08:51:46;;;;;;;15.50;14.17;;;29.70;99.90;;;;;;4963964;28;20206;-79
2021/08/15 08:54:16;;;;;;;15.17;13.87;;;29.80;99.90;;;;;;4965958;28;20202;-79
2021/08/15 08:56:43;;;;;;;15.37;13.87;;;29.90;99.90;;;;;;4970982;28;20209;-79
2021/08/15 08:59:10;;;;;;;14.27;13.03;;;29.80;99.90;;;;;;4962072;28;20645;-80
2021/08/15 09:01:41;;;;;;;13.13;11.80;;;29.80;99.90;;;;;;4967179;28;20622;-79
2021/08/15 09:04:10;;;;;;;12.73;11.53;;;30.10;99.90;;;;;;5025350;22;20272;-78
2021/08/15 09:06:38;;;;;;;12.37;11.17;;;30.30;99.90;;;;;;4994943;28;20745;-77
2021/08/15 09:09:12;;;;;;;12.70;11.60;;;30.40;99.90;;;;;;5000806;28;20256;-78
2021/08/15 09:11:40;;;;;;;13.87;12.70;;;30.40;99.90;;;;;;4990937;28;20272;-77
2021/08/15 09:14:09;;;;;;;13.43;12.37;;;30.50;99.90;;;;;;5003791;28;20655;-78
2021/08/15 09:16:58;;;;;;;13.33;12.13;;;30.60;99.90;;;;;;4991868;28;20215;-77
2021/08/15 09:19:31;;;;;;;12.90;11.70;;;30.40;99.90;;;;;;4996303;28;20223;-77
2021/08/15 09:22:10;;;;;;;13.20;12.10;;;30.60;99.90;;;;;;4994353;28;20201;-77
2021/08/15 09:24:47;;;;;;;12.97;11.77;;;31.00;99.90;;;;;;4997082;28;20213;-79
2021/08/15 09:27:19;;;;;;;14.10;12.90;;;31.00;99.90;;;;;;4992320;28;20185;-78
2021/08/15 09:30:05;;;;;;;13.83;12.57;;;30.90;99.90;;;;;;4989815;28;20229;-80
2021/08/15 09:32:32;;;;;;;13.57;12.40;;;30.80;99.90;;;;;;4995429;28;20233;-77
2021/08/15 09:34:59;;;;;;;13.60;12.50;;;30.90;99.90;;;;;;4993488;28;20296;-76
2021/08/15 09:37:30;;;;;;;12.73;11.73;;;30.70;99.90;;;;;;5001162;28;20703;-76
2021/08/15 09:39:58;;;;;;;14.00;12.70;;;30.50;99.90;;;;;;4992915;28;20201;-77
2021/08/15 09:42:40;;;;;;;13.23;12.13;;;30.80;99.90;;;;;;4989780;28;20271;-82
2021/08/15 09:45:08;;;;;;;14.73;13.40;;;30.90;99.90;;;;;;4993592;28;20545;-81
2021/08/15 09:47:36;;;;;;;14.47;13.23;;;31.10;99.90;;;;;;4989336;28;20671;-78
2021/08/15 09:50:17;;;;;;;13.87;12.63;;;31.20;99.90;;;;;;4982529;28;20213;-78
2021/08/15 09:52:45;;;;;;;13.20;12.13;;;31.30;99.90;;;;;;4984692;28;20233;-77
2021/08/15 09:55:14;;;;;;;13.00;11.97;;;31.10;99.90;;;;;;4993597;28;20251;-81
2021/08/15 09:57:42;;;;;;;11.80;10.70;;;30.70;99.90;;;;;;4996460;28;20214;-76
2021/08/15 10:00:33;;;;;;;15.10;11.67;;;30.50;99.90;;;;;;4992147;28;20220;-76
2021/08/15 10:03:03;;;;;;;12.17;11.13;;;30.20;99.90;;;;;;4991123;28;20943;-75
2021/08/15 10:05:32;;;;;;;14.07;12.80;;;30.10;99.90;;;;;;4994676;28;20272;-77
2021/08/15 10:08:01;;;;;;;13.97;11.87;;;29.90;99.90;;;;;;4995864;28;20276;-76
2021/08/15 10:10:29;;;;;;;13.87;12.63;;;29.90;99.90;;;;;;4993620;28;20225;-77
2021/08/15 10:12:56;;;;;;;13.30;12.00;;;29.90;99.90;;;;;;5002765;28;20232;-78
2021/08/15 10:15:23;;;;;;;12.47;11.20;;;30.20;99.90;;;;;;4993842;28;20208;-79
2021/08/15 10:17:53;;;;;;;12.20;10.93;;;30.60;99.90;;;;;;5001540;28;20209;-77
2021/08/15 10:20:22;;;;;;;11.57;10.60;;;30.90;99.90;;;;;;4994493;28;20611;-78
2021/08/15 10:22:50;;;;;;;12.00;10.90;;;31.20;99.90;;;;;;4990065;28;20320;-78
2021/08/15 10:25:35;;;;;;;12.37;10.53;;;31.20;99.90;;;;;;4995009;28;20240;-77
2021/08/15 10:28:02;;;;;;;13.13;11.93;;;31.30;99.90;;;;;;4999257;28;20244;-85
2021/08/15 10:30:51;;;;;;;11.70;10.50;;;30.80;99.90;;;;;;4988953;28;20224;-78
2021/08/15 10:33:21;;;;;;;11.50;10.50;;;30.50;99.90;;;;;;4985165;28;20221;-77
2021/08/15 10:36:24;;;;;;;11.90;10.33;;;30.90;99.90;;;;;;4982644;28;20209;-76
2021/08/15 10:38:52;;;;;;;12.00;10.63;;;30.90;99.90;;;;;;5000908;28;20214;-77
2021/08/15 10:41:52;;;;;;;11.50;10.40;;;30.90;99.90;;;;;;4982566;28;20264;-78
2021/08/15 10:44:20;;;;;;;11.53;10.50;;;31.20;99.90;;;;;;4985988;28;20779;-77
2021/08/15 10:47:20;;;;;;;12.57;11.40;;;31.40;99.90;;;;;;4986192;28;20205;-80
2021/08/15 10:49:50;;;;;;;13.17;12.07;;;31.60;99.90;;;;;;4907315;29;20279;-78
2021/08/15 10:52:38;;;;;;;12.23;11.13;;;31.80;99.90;;;;;;4905963;29;20653;-78
2021/08/15 10:55:10;;;;;;;12.93;11.83;;;31.50;99.90;;;;;;4953314;28;20205;-78
2021/08/15 10:57:45;;;;;;;10.97;9.97;;;31.30;99.90;;;;;;4988783;28;20231;-78
2021/08/15 11:00:48;;;;;;;11.73;10.63;;;31.20;99.90;;;;;;4992736;28;20287;-78
2021/08/15 11:03:41;;;;;;;14.37;13.07;;;31.00;99.90;;;;;;4983229;28;20224;-79
2021/08/15 11:06:42;;;;;;;13.50;12.10;;;31.10;99.90;;;;;;4993978;28;20206;-79
2021/08/15 11:09:09;;;;;;;13.90;12.20;;;31.10;99.90;;;;;;4994917;28;20280;-79
2021/08/15 11:11:57;;;;;;;14.40;13.00;;;31.20;99.90;;;;;;5000185;28;20196;-79
2021/08/15 11:14:29;;;;;;;13.43;12.20;;;31.20;99.90;;;;;;4993428;28;20263;-78
2021/08/15 11:16:58;;;;;;;13.30;12.10;;;31.30;99.90;;;;;;4997288;28;20264;-78
2021/08/15 11:19:30;;;;;;;14.20;12.80;;;31.30;99.90;;;;;;4998557;28;20723;-78
2021/08/15 11:22:09;;;;;;;13.40;12.00;;;31.30;99.90;;;;;;5008532;28;20198;-78
2021/08/15 11:24:38;;;;;;;13.27;12.07;;;31.50;99.90;;;;;;4988437;28;20742;-79
2021/08/15 11:27:06;;;;;;;13.40;12.10;;;31.10;99.90;;;;;;4985899;28;20785;-78
2021/08/15 11:29:34;;;;;;;13.50;12.40;;;31.10;99.90;;;;;;4973890;28;20311;-78
2021/08/15 11:32:01;;;;;;;13.33;12.10;;;31.20;99.90;;;;;;4986951;28;20201;-79
2021/08/15 11:34:28;;;;;;;13.60;12.40;;;31.00;99.90;;;;;;4985591;28;20240;-78
2021/08/15 11:36:57;;;;;;;13.70;12.40;;;30.90;99.90;;;;;;4995519;28;20723;-77
2021/08/15 11:39:30;;;;;;;13.40;12.10;;;30.80;99.90;;;;;;4988408;28;20557;-78
2021/08/15 11:41:58;;;;;;;14.40;12.27;;;31.00;99.90;;;;;;4988258;28;20620;-78
2021/08/15 11:44:25;;;;;;;13.70;12.23;;;30.80;99.90;;;;;;4985072;28;20225;-78
2021/08/15 11:46:54;;;;;;;10.87;9.87;;;30.90;99.90;;;;;;4986372;28;20213;-78
2021/08/15 11:49:34;;;;;;;11.83;10.50;;;31.30;99.90;;;;;;4984502;28;20221;-77
2021/08/15 11:52:15;;;;;;;13.30;11.37;;;31.30;99.90;;;;;;5005385;28;20595;-78
2021/08/15 11:54:43;;;;;;;11.10;10.10;;;31.50;99.90;;;;;;4985033;28;20208;-78
2021/08/15 11:57:11;;;;;;;11.17;10.03;;;31.70;99.90;;;;;;4981407;28;20590;-77
2021/08/15 11:59:40;;;;;;;12.03;10.83;;;31.80;99.90;;;;;;4983650;28;20224;-78
2021/08/15 12:02:16;;;;;;;12.73;9.97;;;31.70;99.90;;;;;;4987779;28;20201;-78
2021/08/15 12:04:45;;;;;;;11.43;10.33;;;31.80;99.90;;;;;;4986368;28;20247;-79
2021/08/15 12:07:13;;;;;;;11.33;10.27;;;31.90;99.90;;;;;;4981270;28;20201;-78
2021/08/15 12:09:41;;;;;;;11.90;10.33;;;32.10;99.90;;;;;;4993297;28;20217;-78
2021/08/15 12:12:13;;;;;;;12.30;10.63;;;31.90;99.90;;;;;;4992375;28;20193;-78
2021/08/15 12:14:42;;;;;;;12.00;10.70;;;31.70;99.90;;;;;;4990737;28;20205;-79
2021/08/15 12:17:10;;;;;;;10.83;9.90;;;31.70;99.90;;;;;;4990731;28;20259;-78
2021/08/15 12:19:38;;;;;;;11.63;10.43;;;31.50;99.90;;;;;;4995465;28;20625;-77
2021/08/15 12:22:17;;;;;;;12.17;11.03;;;31.40;99.90;;;;;;4999485;28;20208;-78
2021/08/15 12:24:46;;;;;;;13.37;12.07;;;31.10;99.90;;;;;;4986090;28;20209;-79
2021/08/15 12:27:14;;;;;;;13.57;12.47;;;31.20;99.90;;;;;;4987415;28;20213;-78
2021/08/15 12:29:43;;;;;;;12.87;11.60;;;31.20;99.90;;;;;;4983925;28;20209;-79
2021/08/15 12:32:14;;;;;;;13.57;12.40;;;31.10;99.90;;;;;;4988410;28;20193;-77
2021/08/15 12:34:43;;;;;;;13.77;12.57;;;30.90;99.90;;;;;;4990859;28;20288;-78
2021/08/15 12:37:18;;;;;;;13.73;12.43;;;30.80;99.90;;;;;;4992719;28;20296;-81
2021/08/15 12:39:47;;;;;;;10.33;9.43;;;30.70;99.90;;;;;;4991574;28;20189;-80
2021/08/15 12:42:20;;;;;;;11.73;10.53;;;30.50;99.90;;;;;;4988361;28;20202;-81
2021/08/15 12:44:51;;;;;;;11.10;10.10;;;30.20;99.90;;;;;;5000589;28;20203;-81
2021/08/15 12:47:26;;;;;;;11.87;10.77;;;29.90;99.90;;;;;;4986523;28;20201;-81
2021/08/15 12:50:04;;;;;;;13.03;12.03;;;29.50;99.90;;;;;;4984550;28;20251;-80
2021/08/15 12:52:42;;;;;;;13.07;11.93;;;29.20;99.90;;;;;;4988849;28;20223;-82
2021/08/15 12:55:20;;;;;;;10.93;10.03;;;29.00;99.90;;;;;;5006262;28;20200;-81
2021/08/15 12:57:51;;;;;;;13.40;10.20;;;28.70;99.90;;;;;;5000587;28;20250;-81
2021/08/15 13:00:18;;;;;;;13.03;11.37;;;28.50;99.90;;;;;;4994799;28;20555;-78
2021/08/15 13:02:47;;;;;;;9.97;8.97;;;27.80;99.90;;;;;;4980244;28;20221;-81
2021/08/15 13:05:15;;;;;;;13.17;8.13;;;27.10;99.90;;;;;;4995024;28;20194;-82
2021/08/15 13:07:42;;;;;;;15.07;8.53;;;26.40;99.90;;;;;;4997786;28;20210;-77
2021/08/15 13:10:10;;;;;;;15.83;7.30;;;25.80;99.90;;;;;;4981991;28;20211;-77
2021/08/15 13:12:37;;;;;;;12.03;6.60;;;25.10;99.90;;;;;;4995755;28;20256;-77
2021/08/15 13:15:06;;;;;;;14.27;7.50;;;24.30;99.90;;;;;;4994357;28;20196;-76
2021/08/15 13:17:33;;;;;;;13.63;7.60;;;23.60;99.90;;;;;;4998214;28;20267;-76
2021/08/15 13:20:02;;;;;;;16.00;8.47;;;23.20;99.90;;;;;;4992320;28;20241;-76
2021/08/15 13:22:29;;;;;;;12.67;11.20;;;22.90;99.90;;;;;;4984434;28;20225;-77
2021/08/15 13:24:55;;;;;;;14.87;11.33;;;22.50;99.90;;;;;;4989042;28;20243;-77
2021/08/15 13:27:22;;;;;;;13.87;11.07;;;22.40;99.90;;;;;;4989934;28;20202;-77
2021/08/15 13:29:49;;;;;;;11.90;10.63;;;22.30;99.90;;;;;;4989122;28;20213;-76
2021/08/15 13:32:16;;;;;;;12.07;10.53;;;22.20;99.90;;;;;;4996448;28;20205;-79
2021/08/15 13:34:44;;;;;;;13.13;11.07;;;22.20;99.90;;;;;;5000372;28;20209;-78
2021/08/15 13:37:14;;;;;;;11.93;10.80;;;22.10;99.90;;;;;;4999007;28;20208;-78
2021/08/15 13:39:41;;;;;;;14.07;10.90;;;22.10;99.90;;;;;;5002702;28;20203;-78
2021/08/15 13:42:09;;;;;;;13.40;11.70;;;22.30;99.90;;;;;;4995479;28;20205;-78
2021/08/15 13:44:36;;;;;;;14.07;11.80;;;22.50;99.90;;;;;;4987775;28;20296;-78
2021/08/15 13:47:04;;;;;;;12.87;11.47;;;22.80;99.90;;;;;;4990785;28;20197;-78
2021/08/15 13:49:31;;;;;;;13.60;12.10;;;23.00;99.90;;;;;;4987165;28;20193;-78
2021/08/15 13:51:57;;;;;;;13.23;10.40;;;23.20;99.90;;;;;;4987728;28;20217;-79
2021/08/15 13:54:25;;;;;;;10.93;9.83;;;23.30;99.90;;;;;;4988027;28;20287;-78
2021/08/15 13:56:52;;;;;;;12.40;11.10;;;23.50;99.90;;;;;;4988699;28;20209;-79
2021/08/15 13:59:19;;;;;;;12.70;11.13;;;23.60;99.90;;;;;;5001168;28;20273;-79
2021/08/15 14:01:46;;;;;;;11.90;10.70;;;23.50;99.90;;;;;;4988311;28;20190;-78
2021/08/15 14:04:13;;;;;;;11.67;10.57;;;23.60;99.90;;;;;;4986065;28;20225;-80
2021/08/15 14:06:40;;;;;;;11.53;10.43;;;23.50;99.90;;;;;;4990078;28;20231;-80
2021/08/15 14:09:07;;;;;;;11.53;10.43;;;23.50;99.90;;;;;;4982363;28;20202;-79
2021/08/15 14:11:35;;;;;;;11.20;10.10;;;23.60;99.90;;;;;;4986695;28;20225;-79
2021/08/15 14:14:03;;;;;;;11.57;10.47;;;23.60;99.90;;;;;;4985426;28;20221;-79
2021/08/15 14:16:31;;;;;;;11.13;10.13;;;23.70;99.90;;;;;;4980993;28;20198;-77
2021/08/15 14:18:58;;;;;;;11.20;10.10;;;23.80;99.90;;;;;;4988324;28;20202;-76
2021/08/15 14:21:25;;;;;;;11.40;10.30;;;24.00;99.90;;;;;;4993208;28;20719;-77
2021/08/15 14:23:52;;;;;;;10.23;9.43;;;24.20;99.90;;;;;;5003581;28;20635;-78
2021/08/15 14:26:19;;;;;;;10.40;9.60;;;24.40;99.90;;;;;;4995968;28;20671;-77
2021/08/15 14:28:49;;;;;;;10.57;9.67;;;24.70;99.90;;;;;;4998869;28;20726;-78
2021/08/15 14:31:16;;;;;;;10.63;9.83;;;25.00;99.90;;;;;;4999884;28;20576;-77
2021/08/15 14:33:43;;;;;;;10.20;9.30;;;25.20;99.90;;;;;;4995906;28;20263;-77
2021/08/15 14:36:11;;;;;;;9.33;8.63;;;25.30;99.90;;;;;;5000425;28;20201;-77
2021/08/15 14:38:38;;;;;;;9.10;8.40;;;25.40;99.90;;;;;;4997797;28;20197;-78
2021/08/15 14:41:05;;;;;;;9.93;9.13;;;25.60;99.90;;;;;;4996165;28;20208;-78
2021/08/15 14:43:33;;;;;;;9.73;9.00;;;25.80;99.90;;;;;;5008056;28;20653;-77
2021/08/15 14:46:01;;;;;;;10.67;9.87;;;25.90;99.90;;;;;;4996940;28;20204;-78
2021/08/15 14:48:29;;;;;;;9.80;8.97;;;25.90;99.90;;;;;;4998892;28;20208;-78
2021/08/15 14:50:56;;;;;;;8.60;7.90;;;25.90;99.90;;;;;;5003034;28;20209;-77
2021/08/15 14:53:22;;;;;;;9.10;8.30;;;25.90;99.90;;;;;;4993861;28;20275;-77
2021/08/15 14:55:49;;;;;;;9.73;9.00;;;25.90;99.90;;;;;;5001298;28;20193;-78
2021/08/15 14:58:16;;;;;;;10.97;9.87;;;25.90;99.90;;;;;;4995776;28;20208;-77